createdAt,value
2022-07-31T00:00:27.810Z,28.60
2022-07-31T00:01:26.687Z,28.58
2022-07-31T00:02:26.676Z,28.65
2022-07-31T00:03:26.776Z,28.56
2022-07-31T00:04:26.659Z,28.59
2022-07-31T00:05:26.651Z,28.59
2022-07-31T00:06:26.634Z,28.59
2022-07-31T00:07:26.620Z,28.53
2022-07-31T00:08:26.610Z,28.58
2022-07-31T00:09:53.681Z,28.62
2022-07-31T00:10:27.617Z,28.58
2022-07-31T00:11:26.578Z,28.62
2022-07-31T00:12:26.565Z,28.54
2022-07-31T00:13:57.972Z,28.62
2022-07-31T00:14:27.542Z,28.60
2022-07-31T00:15:26.530Z,28.62
2022-07-31T00:16:26.536Z,28.60
2022-07-31T00:17:26.510Z,28.59
2022-07-31T00:18:26.500Z,28.59
2022-07-31T00:19:26.487Z,28.58
2022-07-31T00:20:26.476Z,28.50
2022-07-31T00:21:26.465Z,28.53
2022-07-31T00:22:26.505Z,28.62
2022-07-31T00:23:26.442Z,28.59
2022-07-31T00:24:26.435Z,28.54
2022-07-31T00:25:26.422Z,28.50
2022-07-31T00:26:26.410Z,28.48
2022-07-31T00:27:26.399Z,28.47
2022-07-31T00:28:26.393Z,28.48
2022-07-31T00:29:26.377Z,28.53
2022-07-31T00:30:26.366Z,28.51
2022-07-31T00:31:26.355Z,28.40
2022-07-31T00:32:26.343Z,28.46
2022-07-31T00:33:26.332Z,28.51
2022-07-31T00:34:26.341Z,28.48
2022-07-31T00:35:26.309Z,28.44
2022-07-31T00:36:28.493Z,28.50
2022-07-31T00:37:26.287Z,28.43
2022-07-31T00:38:27.130Z,28.41
2022-07-31T00:39:26.265Z,28.44
2022-07-31T00:40:26.259Z,28.48
2022-07-31T00:41:26.244Z,28.44
2022-07-31T00:42:26.234Z,28.54
2022-07-31T00:43:30.691Z,28.48
2022-07-31T00:44:26.237Z,28.53
2022-07-31T00:45:29.111Z,28.43
2022-07-31T00:46:27.218Z,28.48
2022-07-31T00:47:26.177Z,28.43
2022-07-31T00:48:26.169Z,28.43
2022-07-31T00:49:26.230Z,28.50
2022-07-31T00:50:27.143Z,28.50
2022-07-31T00:51:26.133Z,28.56
2022-07-31T00:52:26.135Z,28.47
2022-07-31T00:53:26.110Z,28.58
2022-07-31T00:54:26.101Z,28.51
2022-07-31T00:55:26.088Z,28.51
2022-07-31T00:56:26.079Z,28.51
2022-07-31T00:57:26.066Z,28.41
2022-07-31T00:58:26.063Z,28.41
2022-07-31T00:59:26.044Z,28.43
2022-07-31T01:00:26.033Z,28.50
2022-07-31T01:01:26.140Z,28.58
2022-07-31T01:02:26.012Z,28.50
2022-07-31T01:03:26.001Z,28.51
2022-07-31T01:04:25.994Z,28.53
2022-07-31T01:05:25.976Z,28.59
2022-07-31T01:06:25.967Z,28.53
2022-07-31T01:07:25.954Z,28.47
2022-07-31T01:08:25.943Z,28.56
2022-07-31T01:09:25.938Z,28.50
2022-07-31T01:10:25.942Z,28.40
2022-07-31T01:11:25.911Z,28.56
2022-07-31T01:12:25.901Z,28.51
2022-07-31T01:13:25.888Z,28.53
2022-07-31T01:14:25.881Z,28.56
2022-07-31T01:15:25.867Z,28.58
2022-07-31T01:16:25.862Z,28.59
2022-07-31T01:17:25.845Z,28.51
2022-07-31T01:18:25.834Z,28.46
2022-07-31T01:19:37.940Z,28.50
2022-07-31T01:20:26.810Z,28.54
2022-07-31T01:21:25.800Z,28.50
2022-07-31T01:22:33.760Z,28.54
2022-07-31T01:23:26.777Z,28.44
2022-07-31T01:24:25.767Z,28.43
2022-07-31T01:25:25.757Z,28.51
2022-07-31T01:26:25.745Z,28.53
2022-07-31T01:27:25.733Z,28.40
2022-07-31T01:28:25.767Z,28.38
2022-07-31T01:29:25.711Z,28.35
2022-07-31T01:30:30.438Z,28.47
2022-07-31T01:31:27.612Z,28.51
2022-07-31T01:32:27.621Z,28.44
2022-07-31T01:33:25.668Z,28.48
2022-07-31T01:34:25.663Z,28.43
2022-07-31T01:35:25.649Z,28.44
2022-07-31T01:36:25.633Z,28.40
2022-07-31T01:37:25.623Z,28.46
2022-07-31T01:38:25.612Z,28.48
2022-07-31T01:39:25.600Z,28.38
2022-07-31T01:40:25.596Z,28.44
2022-07-31T01:41:25.579Z,28.51
2022-07-31T01:42:25.570Z,28.41
2022-07-31T01:43:25.557Z,28.51
2022-07-31T01:44:25.545Z,28.46
2022-07-31T01:45:25.533Z,28.50
2022-07-31T01:46:25.544Z,28.32
2022-07-31T01:47:25.511Z,28.46
2022-07-31T01:48:25.500Z,28.50
2022-07-31T01:49:25.576Z,28.40
2022-07-31T01:50:42.230Z,28.40
2022-07-31T01:51:26.471Z,28.46
2022-07-31T01:52:25.458Z,28.43
2022-07-31T01:53:25.445Z,28.36
2022-07-31T01:54:25.433Z,28.41
2022-07-31T01:55:25.424Z,28.43
2022-07-31T01:56:25.411Z,28.38
2022-07-31T01:57:25.416Z,28.43
2022-07-31T01:58:25.390Z,28.43
2022-07-31T01:59:25.378Z,28.41
2022-07-31T02:00:34.465Z,28.41
2022-07-31T02:01:27.442Z,28.43
2022-07-31T02:02:25.347Z,28.35
2022-07-31T02:03:42.970Z,28.32
2022-07-31T02:04:26.327Z,28.40
2022-07-31T02:05:25.313Z,28.46
2022-07-31T02:06:25.301Z,28.32
2022-07-31T02:07:25.289Z,28.46
2022-07-31T02:08:25.280Z,28.32
2022-07-31T02:09:25.274Z,28.36
2022-07-31T02:10:25.258Z,28.41
2022-07-31T02:11:25.247Z,28.36
2022-07-31T02:12:33.240Z,28.31
2022-07-31T02:13:26.222Z,28.41
2022-07-31T02:14:25.213Z,28.36
2022-07-31T02:15:25.207Z,28.35
2022-07-31T02:16:25.190Z,28.35
2022-07-31T02:17:25.181Z,28.40
2022-07-31T02:18:25.168Z,28.32
2022-07-31T02:19:25.156Z,28.41
2022-07-31T02:20:25.147Z,28.41
2022-07-31T02:21:25.155Z,28.38
2022-07-31T02:22:25.123Z,28.38
2022-07-31T02:23:25.111Z,28.31
2022-07-31T02:24:25.101Z,28.40
2022-07-31T02:25:25.091Z,28.35
2022-07-31T02:26:25.079Z,28.33
2022-07-31T02:27:53.942Z,28.32
2022-07-31T02:28:26.056Z,28.43
2022-07-31T02:29:25.046Z,28.31
2022-07-31T02:30:25.034Z,28.44
2022-07-31T02:31:25.023Z,28.38
2022-07-31T02:32:25.015Z,28.38
2022-07-31T02:33:25.047Z,28.31
2022-07-31T02:34:29.266Z,28.31
2022-07-31T02:35:25.984Z,28.32
2022-07-31T02:36:24.967Z,28.32
2022-07-31T02:37:24.958Z,28.43
2022-07-31T02:38:24.945Z,28.32
2022-07-31T02:39:30.072Z,28.35
2022-07-31T02:40:25.923Z,28.32
2022-07-31T02:41:24.911Z,28.35
2022-07-31T02:42:24.900Z,28.36
2022-07-31T02:43:24.890Z,28.35
2022-07-31T02:44:27.212Z,28.29
2022-07-31T02:45:24.876Z,28.32
2022-07-31T02:46:24.861Z,28.32
2022-07-31T02:47:24.845Z,28.29
2022-07-31T02:48:24.839Z,28.32
2022-07-31T02:49:24.899Z,28.28
2022-07-31T02:50:24.813Z,28.32
2022-07-31T02:51:24.806Z,28.36
2022-07-31T02:52:24.791Z,28.36
2022-07-31T02:53:24.780Z,28.40
2022-07-31T02:54:24.769Z,28.35
2022-07-31T02:55:24.757Z,28.29
2022-07-31T02:56:24.748Z,28.31
2022-07-31T02:57:24.756Z,28.28
2022-07-31T02:58:24.727Z,28.35
2022-07-31T02:59:24.712Z,28.31
2022-07-31T03:00:24.780Z,28.28
2022-07-31T03:01:24.739Z,28.33
2022-07-31T03:02:24.679Z,28.29
2022-07-31T03:03:25.672Z,28.26
2022-07-31T03:04:24.655Z,28.32
2022-07-31T03:05:24.645Z,28.29
2022-07-31T03:06:24.635Z,28.29
2022-07-31T03:07:24.624Z,28.22
2022-07-31T03:08:24.611Z,28.28
2022-07-31T03:09:24.616Z,28.28
2022-07-31T03:10:24.589Z,28.25
2022-07-31T03:11:24.578Z,28.26
2022-07-31T03:12:24.568Z,28.32
2022-07-31T03:13:24.556Z,28.33
2022-07-31T03:14:24.545Z,28.33
2022-07-31T03:15:25.571Z,28.23
2022-07-31T03:16:24.523Z,28.28
2022-07-31T03:17:24.512Z,28.32
2022-07-31T03:18:25.501Z,28.28
2022-07-31T03:19:24.491Z,28.29
2022-07-31T03:20:24.479Z,28.23
2022-07-31T03:21:24.474Z,28.25
2022-07-31T03:22:24.457Z,28.31
2022-07-31T03:23:24.445Z,28.25
2022-07-31T03:24:24.436Z,28.29
2022-07-31T03:25:24.422Z,28.23
2022-07-31T03:26:24.412Z,28.28
2022-07-31T03:27:24.407Z,28.25
2022-07-31T03:28:24.390Z,28.25
2022-07-31T03:29:36.120Z,28.23
2022-07-31T03:30:25.573Z,28.26
2022-07-31T03:31:24.356Z,28.23
2022-07-31T03:32:24.345Z,28.28
2022-07-31T03:33:24.374Z,28.28
2022-07-31T03:34:24.323Z,28.23
2022-07-31T03:35:24.362Z,28.25
2022-07-31T03:36:24.307Z,28.26
2022-07-31T03:37:24.294Z,28.25
2022-07-31T03:38:40.672Z,28.28
2022-07-31T03:39:25.297Z,28.22
2022-07-31T03:40:24.259Z,28.26
2022-07-31T03:41:24.247Z,28.23
2022-07-31T03:42:24.235Z,28.29
2022-07-31T03:43:24.228Z,28.26
2022-07-31T03:44:24.212Z,28.23
2022-07-31T03:45:24.216Z,28.26
2022-07-31T03:46:24.191Z,28.32
2022-07-31T03:47:24.179Z,28.29
2022-07-31T03:48:24.168Z,28.32
2022-07-31T03:49:24.227Z,28.31
2022-07-31T03:50:24.146Z,28.33
2022-07-31T03:51:24.139Z,28.26
2022-07-31T03:52:24.123Z,28.28
2022-07-31T03:53:24.113Z,28.23
2022-07-31T03:54:24.101Z,28.26
2022-07-31T03:55:24.090Z,28.28
2022-07-31T03:56:24.079Z,28.31
2022-07-31T03:57:28.772Z,28.31
2022-07-31T03:58:25.056Z,28.35
2022-07-31T03:59:24.046Z,28.31
2022-07-31T04:00:24.035Z,28.22
2022-07-31T04:01:24.122Z,28.31
2022-07-31T04:02:24.025Z,28.28
2022-07-31T04:03:24.007Z,28.31
2022-07-31T04:04:23.989Z,28.31
2022-07-31T04:05:23.979Z,28.29
2022-07-31T04:06:23.968Z,28.28
2022-07-31T04:07:23.958Z,28.32
2022-07-31T04:08:23.946Z,28.36
2022-07-31T04:09:23.956Z,28.33
2022-07-31T04:10:23.925Z,28.29
2022-07-31T04:11:23.912Z,28.29
2022-07-31T04:12:23.901Z,28.32
2022-07-31T04:13:23.890Z,28.33
2022-07-31T04:14:23.880Z,28.32
2022-07-31T04:15:23.875Z,28.33
2022-07-31T04:16:23.856Z,28.33
2022-07-31T04:17:23.846Z,28.32
2022-07-31T04:18:23.835Z,28.32
2022-07-31T04:19:23.827Z,28.33
2022-07-31T04:20:23.812Z,28.32
2022-07-31T04:21:23.830Z,28.40
2022-07-31T04:22:23.790Z,28.33
2022-07-31T04:23:23.778Z,28.31
2022-07-31T04:24:24.772Z,28.32
2022-07-31T04:25:23.757Z,28.32
2022-07-31T04:26:26.169Z,28.40
2022-07-31T04:27:23.751Z,28.33
2022-07-31T04:28:23.725Z,28.29
2022-07-31T04:29:23.713Z,28.43
2022-07-31T04:30:23.704Z,28.33
2022-07-31T04:31:23.691Z,28.33
2022-07-31T04:32:23.678Z,28.29
2022-07-31T04:33:23.673Z,28.31
2022-07-31T04:34:23.656Z,28.32
2022-07-31T04:35:23.648Z,28.41
2022-07-31T04:36:29.944Z,28.36
2022-07-31T04:37:24.622Z,28.25
2022-07-31T04:38:23.613Z,28.43
2022-07-31T04:39:23.624Z,28.35
2022-07-31T04:40:23.589Z,28.33
2022-07-31T04:41:23.579Z,28.44
2022-07-31T04:42:23.567Z,28.35
2022-07-31T04:43:23.557Z,28.33
2022-07-31T04:44:23.546Z,28.26
2022-07-31T04:45:23.559Z,28.29
2022-07-31T04:46:23.523Z,28.36
2022-07-31T04:47:23.511Z,28.38
2022-07-31T04:48:23.503Z,28.35
2022-07-31T04:49:23.517Z,28.35
2022-07-31T04:50:23.478Z,28.29
2022-07-31T04:51:23.474Z,28.32
2022-07-31T04:52:23.457Z,28.31
2022-07-31T04:53:23.446Z,28.36
2022-07-31T04:54:23.436Z,28.41
2022-07-31T04:55:23.424Z,28.32
2022-07-31T04:56:23.412Z,28.35
2022-07-31T04:57:23.417Z,28.41
2022-07-31T04:58:23.392Z,28.43
2022-07-31T04:59:23.380Z,28.38
2022-07-31T05:00:24.368Z,28.40
2022-07-31T05:01:23.409Z,28.35
2022-07-31T05:02:23.345Z,28.38
2022-07-31T05:03:23.364Z,28.35
2022-07-31T05:04:23.324Z,28.36
2022-07-31T05:05:23.312Z,28.44
2022-07-31T05:06:23.300Z,28.38
2022-07-31T05:07:23.289Z,28.44
2022-07-31T05:08:23.280Z,28.40
2022-07-31T05:09:23.617Z,28.40
2022-07-31T05:10:23.257Z,28.43
2022-07-31T05:11:23.246Z,28.38
2022-07-31T05:12:23.235Z,28.41
2022-07-31T05:13:23.224Z,28.38
2022-07-31T05:14:23.218Z,28.36
2022-07-31T05:15:23.208Z,28.46
2022-07-31T05:16:23.190Z,28.40
2022-07-31T05:17:23.178Z,28.47
2022-07-31T05:18:23.169Z,28.43
2022-07-31T05:19:23.158Z,28.43
2022-07-31T05:20:23.146Z,28.32
2022-07-31T05:21:23.156Z,28.46
2022-07-31T05:22:23.126Z,28.44
2022-07-31T05:23:23.112Z,28.48
2022-07-31T05:24:33.386Z,28.44
2022-07-31T05:25:24.090Z,28.43
2022-07-31T05:26:23.079Z,28.41
2022-07-31T05:27:23.074Z,28.51
2022-07-31T05:28:29.990Z,28.48
2022-07-31T05:29:24.044Z,28.47
2022-07-31T05:30:30.182Z,28.41
2022-07-31T05:31:24.022Z,28.48
2022-07-31T05:32:23.017Z,28.46
2022-07-31T05:33:23.017Z,28.48
2022-07-31T05:34:22.992Z,28.48
2022-07-31T05:35:22.980Z,28.48
2022-07-31T05:36:22.968Z,28.48
2022-07-31T05:37:22.957Z,28.43
2022-07-31T05:38:22.946Z,28.44
2022-07-31T05:39:22.964Z,28.48
2022-07-31T05:40:22.924Z,28.51
2022-07-31T05:41:22.911Z,28.47
2022-07-31T05:42:22.901Z,28.51
2022-07-31T05:43:22.891Z,28.50
2022-07-31T05:44:22.887Z,28.40
2022-07-31T05:45:22.890Z,28.53
2022-07-31T05:46:22.856Z,28.38
2022-07-31T05:47:22.846Z,28.53
2022-07-31T05:48:22.833Z,28.46
2022-07-31T05:49:22.878Z,28.56
2022-07-31T05:50:22.814Z,28.40
2022-07-31T05:51:22.809Z,28.56
2022-07-31T05:52:22.789Z,28.41
2022-07-31T05:53:22.778Z,28.47
2022-07-31T05:54:22.771Z,28.53
2022-07-31T05:55:22.756Z,28.46
2022-07-31T05:56:22.746Z,28.56
2022-07-31T05:57:26.466Z,28.51
2022-07-31T05:58:23.723Z,28.53
2022-07-31T05:59:22.718Z,28.46
2022-07-31T06:00:22.700Z,28.46
2022-07-31T06:01:22.772Z,28.44
2022-07-31T06:02:22.680Z,28.41
2022-07-31T06:03:22.698Z,28.47
2022-07-31T06:04:22.655Z,28.53
2022-07-31T06:05:22.645Z,28.38
2022-07-31T06:06:22.636Z,28.53
2022-07-31T06:07:22.626Z,28.47
2022-07-31T06:08:22.612Z,28.53
2022-07-31T06:09:22.607Z,28.48
2022-07-31T06:10:22.590Z,28.53
2022-07-31T06:11:22.578Z,28.53
2022-07-31T06:12:22.569Z,28.50
2022-07-31T06:13:22.558Z,28.51
2022-07-31T06:14:22.546Z,28.51
2022-07-31T06:15:22.550Z,28.56
2022-07-31T06:16:22.523Z,28.60
2022-07-31T06:17:22.549Z,28.47
2022-07-31T06:18:22.501Z,28.51
2022-07-31T06:19:24.374Z,28.48
2022-07-31T06:20:22.479Z,28.46
2022-07-31T06:21:22.474Z,28.54
2022-07-31T06:22:22.458Z,28.47
2022-07-31T06:23:27.887Z,28.40
2022-07-31T06:24:23.437Z,28.47
2022-07-31T06:25:22.423Z,28.58
2022-07-31T06:26:23.135Z,28.47
2022-07-31T06:27:33.401Z,28.46
2022-07-31T06:28:26.069Z,28.54
2022-07-31T06:29:23.854Z,28.51
2022-07-31T06:30:23.368Z,28.54
2022-07-31T06:31:22.360Z,28.48
2022-07-31T06:32:22.345Z,28.53
2022-07-31T06:33:37.785Z,28.51
2022-07-31T06:34:23.324Z,28.58
2022-07-31T06:35:22.314Z,28.56
2022-07-31T06:36:22.301Z,28.58
2022-07-31T06:37:22.290Z,28.51
2022-07-31T06:38:22.279Z,28.54
2022-07-31T06:39:22.299Z,28.59
2022-07-31T06:40:22.259Z,28.60
2022-07-31T06:41:22.247Z,28.53
2022-07-31T06:42:22.234Z,28.53
2022-07-31T06:43:22.225Z,28.59
2022-07-31T06:44:22.213Z,28.60
2022-07-31T06:45:41.892Z,28.63
2022-07-31T06:46:23.192Z,28.59
2022-07-31T06:47:22.179Z,28.53
2022-07-31T06:48:22.170Z,28.59
2022-07-31T06:49:22.246Z,28.59
2022-07-31T06:50:22.148Z,28.63
2022-07-31T06:51:31.180Z,28.56
2022-07-31T06:52:23.123Z,28.60
2022-07-31T06:53:22.112Z,28.63
2022-07-31T06:54:22.103Z,28.56
2022-07-31T06:55:22.090Z,28.65
2022-07-31T06:56:22.079Z,28.63
2022-07-31T06:57:22.074Z,28.70
2022-07-31T06:58:22.058Z,28.60
2022-07-31T06:59:39.188Z,28.65
2022-07-31T07:00:23.034Z,28.63
2022-07-31T07:01:22.127Z,28.60
2022-07-31T07:02:22.013Z,28.65
2022-07-31T07:03:22.008Z,28.56
2022-07-31T07:04:21.993Z,28.60
2022-07-31T07:05:22.982Z,28.72
2022-07-31T07:06:21.968Z,28.63
2022-07-31T07:07:21.961Z,28.68
2022-07-31T07:08:21.947Z,28.58
2022-07-31T07:09:21.941Z,28.72
2022-07-31T07:10:21.924Z,28.65
2022-07-31T07:11:21.917Z,28.68
2022-07-31T07:12:21.901Z,28.75
2022-07-31T07:13:21.890Z,28.66
2022-07-31T07:14:21.879Z,28.66
2022-07-31T07:15:21.902Z,28.62
2022-07-31T07:16:21.859Z,28.63
2022-07-31T07:17:25.921Z,28.62
2022-07-31T07:18:22.835Z,28.66
2022-07-31T07:19:21.824Z,28.65
2022-07-31T07:20:21.815Z,28.69
2022-07-31T07:21:21.819Z,28.66
2022-07-31T07:22:31.683Z,28.72
2022-07-31T07:23:22.779Z,28.73
2022-07-31T07:24:21.768Z,28.73
2022-07-31T07:25:21.761Z,28.68
2022-07-31T07:26:21.749Z,28.68
2022-07-31T07:27:21.741Z,28.72
2022-07-31T07:28:31.144Z,28.70
2022-07-31T07:29:22.714Z,28.70
2022-07-31T07:30:21.745Z,28.72
2022-07-31T07:31:21.691Z,28.70
2022-07-31T07:32:21.679Z,28.66
2022-07-31T07:33:39.759Z,28.70
2022-07-31T07:34:22.657Z,28.72
2022-07-31T07:35:21.649Z,28.69
2022-07-31T07:36:23.832Z,28.77
2022-07-31T07:37:21.626Z,28.72
2022-07-31T07:38:21.614Z,28.77
2022-07-31T07:39:21.622Z,28.75
2022-07-31T07:40:21.655Z,28.75
2022-07-31T07:41:21.579Z,28.73
2022-07-31T07:42:21.568Z,28.73
2022-07-31T07:43:21.558Z,28.75
2022-07-31T07:44:21.547Z,28.73
2022-07-31T07:45:21.541Z,28.70
2022-07-31T07:46:21.525Z,28.78
2022-07-31T07:47:21.514Z,28.80
2022-07-31T07:48:21.503Z,28.81
2022-07-31T07:49:21.586Z,28.80
2022-07-31T07:50:21.515Z,28.80
2022-07-31T07:51:21.514Z,28.80
2022-07-31T07:52:21.459Z,28.73
2022-07-31T07:53:21.449Z,28.81
2022-07-31T07:54:21.436Z,28.81
2022-07-31T07:55:21.425Z,28.78
2022-07-31T07:56:21.416Z,28.80
2022-07-31T07:57:21.418Z,28.78
2022-07-31T07:58:21.392Z,28.78
2022-07-31T07:59:21.380Z,28.81
2022-07-31T08:00:21.463Z,28.81
2022-07-31T08:01:21.420Z,28.87
2022-07-31T08:02:21.347Z,28.91
2022-07-31T08:03:49.801Z,28.88
2022-07-31T08:04:22.326Z,28.81
2022-07-31T08:05:21.314Z,28.88
2022-07-31T08:06:21.304Z,28.91
2022-07-31T08:07:21.293Z,28.85
2022-07-31T08:08:21.280Z,28.88
2022-07-31T08:09:21.274Z,28.84
2022-07-31T08:10:21.257Z,28.87
2022-07-31T08:11:21.249Z,28.90
2022-07-31T08:12:21.237Z,28.88
2022-07-31T08:13:21.227Z,28.90
2022-07-31T08:14:21.214Z,28.90
2022-07-31T08:15:21.209Z,28.93
2022-07-31T08:16:21.191Z,28.95
2022-07-31T08:17:21.180Z,28.97
2022-07-31T08:18:21.170Z,28.97
2022-07-31T08:19:21.159Z,28.95
2022-07-31T08:20:21.147Z,28.95
2022-07-31T08:21:21.143Z,28.97
2022-07-31T08:22:21.126Z,28.95
2022-07-31T08:23:21.115Z,28.97
2022-07-31T08:24:21.103Z,29.00
2022-07-31T08:25:21.092Z,29.04
2022-07-31T08:26:21.081Z,29.03
2022-07-31T08:27:21.518Z,29.00
2022-07-31T08:28:24.143Z,28.97
2022-07-31T08:29:26.500Z,29.01
2022-07-31T08:30:22.036Z,29.00
2022-07-31T08:31:21.077Z,28.97
2022-07-31T08:32:21.016Z,29.04
2022-07-31T08:33:21.036Z,29.04
2022-07-31T08:34:31.208Z,29.11
2022-07-31T08:35:21.981Z,29.08
2022-07-31T08:36:20.971Z,29.06
2022-07-31T08:37:50.861Z,29.11
2022-07-31T08:38:21.954Z,29.11
2022-07-31T08:39:21.136Z,29.11
2022-07-31T08:40:20.927Z,29.06
2022-07-31T08:41:20.916Z,29.08
2022-07-31T08:42:20.905Z,29.07
2022-07-31T08:44:27.088Z,29.15
2022-07-31T08:45:22.692Z,29.10
2022-07-31T08:46:20.862Z,29.10
2022-07-31T08:47:20.849Z,29.18
2022-07-31T08:48:20.838Z,29.13
2022-07-31T08:49:20.873Z,29.11
2022-07-31T08:50:20.822Z,29.15
2022-07-31T08:51:20.805Z,29.16
2022-07-31T08:52:20.794Z,29.18
2022-07-31T08:53:20.783Z,29.10
2022-07-31T08:54:20.774Z,29.16
2022-07-31T08:55:24.824Z,29.13
2022-07-31T08:56:21.769Z,29.19
2022-07-31T08:57:20.739Z,29.23
2022-07-31T08:58:20.728Z,29.20
2022-07-31T08:59:20.717Z,29.19
2022-07-31T09:00:20.707Z,29.20
2022-07-31T09:01:20.752Z,29.23
2022-07-31T09:02:20.711Z,29.19
2022-07-31T09:03:20.673Z,29.22
2022-07-31T09:04:20.661Z,29.19
2022-07-31T09:05:20.650Z,29.22
2022-07-31T09:06:20.639Z,29.28
2022-07-31T09:07:20.627Z,29.22
2022-07-31T09:08:20.635Z,29.19
2022-07-31T09:09:20.604Z,29.22
2022-07-31T09:10:20.597Z,29.26
2022-07-31T09:11:20.583Z,29.28
2022-07-31T09:12:20.575Z,29.29
2022-07-31T09:13:21.567Z,29.25
2022-07-31T09:14:20.551Z,29.31
2022-07-31T09:15:20.544Z,29.28
2022-07-31T09:16:24.189Z,29.26
2022-07-31T09:17:21.515Z,29.28
2022-07-31T09:18:20.506Z,29.33
2022-07-31T09:19:51.741Z,29.38
2022-07-31T09:20:21.482Z,29.31
2022-07-31T09:21:20.473Z,29.35
2022-07-31T09:22:20.461Z,29.38
2022-07-31T09:23:20.450Z,29.31
2022-07-31T09:24:20.441Z,29.35
2022-07-31T09:25:20.436Z,29.35
2022-07-31T09:26:20.418Z,29.40
2022-07-31T09:27:20.409Z,29.41
2022-07-31T09:28:24.992Z,29.47
2022-07-31T09:29:20.385Z,29.43
2022-07-31T09:30:20.375Z,29.44
2022-07-31T09:31:20.367Z,29.47
2022-07-31T09:32:20.353Z,29.44
2022-07-31T09:33:20.342Z,29.50
2022-07-31T09:34:20.330Z,29.45
2022-07-31T09:35:20.318Z,29.45
2022-07-31T09:36:20.307Z,29.38
2022-07-31T09:37:20.326Z,29.47
2022-07-31T09:38:20.284Z,29.41
2022-07-31T09:39:24.708Z,29.33
2022-07-31T09:40:21.472Z,29.43
2022-07-31T09:41:56.438Z,29.44
2022-07-31T09:42:21.248Z,29.47
2022-07-31T09:43:20.233Z,29.47
2022-07-31T09:44:20.326Z,29.49
2022-07-31T09:45:21.206Z,29.50
2022-07-31T09:46:20.213Z,29.53
2022-07-31T09:47:20.186Z,29.52
2022-07-31T09:48:26.847Z,29.53
2022-07-31T09:49:21.214Z,29.49
2022-07-31T09:50:20.154Z,29.50
2022-07-31T09:51:20.140Z,29.53
2022-07-31T09:52:20.129Z,29.60
2022-07-31T09:53:20.119Z,29.60
2022-07-31T09:54:20.113Z,29.63
2022-07-31T09:55:20.098Z,29.65
2022-07-31T09:56:20.085Z,29.57
2022-07-31T09:57:20.075Z,29.65
2022-07-31T09:58:20.064Z,29.68
2022-07-31T09:59:20.058Z,29.59
2022-07-31T10:00:20.063Z,29.72
2022-07-31T10:01:20.088Z,29.72
2022-07-31T10:02:20.022Z,29.74
2022-07-31T10:03:20.009Z,29.74
2022-07-31T10:04:19.997Z,29.77
2022-07-31T10:05:19.986Z,29.68
2022-07-31T10:06:19.980Z,29.77
2022-07-31T10:07:32.542Z,29.71
2022-07-31T10:08:20.951Z,29.72
2022-07-31T10:09:19.941Z,29.78
2022-07-31T10:10:19.931Z,29.79
2022-07-31T10:11:19.921Z,29.79
2022-07-31T10:12:19.938Z,29.86
2022-07-31T10:13:19.897Z,29.82
2022-07-31T10:14:19.887Z,29.90
2022-07-31T10:15:19.879Z,29.87
2022-07-31T10:16:19.864Z,29.90
2022-07-31T10:17:19.854Z,29.94
2022-07-31T10:18:19.853Z,29.94
2022-07-31T10:19:20.831Z,29.94
2022-07-31T10:20:19.827Z,29.97
2022-07-31T10:21:19.810Z,30.05
2022-07-31T10:22:19.800Z,30.05
2022-07-31T10:23:19.788Z,29.94
2022-07-31T10:24:19.797Z,30.09
2022-07-31T10:25:19.765Z,29.99
2022-07-31T10:26:19.753Z,30.08
2022-07-31T10:27:19.743Z,30.09
2022-07-31T10:28:19.734Z,30.15
2022-07-31T10:29:19.720Z,30.23
2022-07-31T10:30:19.716Z,30.19
2022-07-31T10:31:19.700Z,30.24
2022-07-31T10:32:19.695Z,30.27
2022-07-31T10:33:42.562Z,30.33
2022-07-31T10:34:20.665Z,30.29
2022-07-31T10:35:19.655Z,30.31
2022-07-31T10:36:19.651Z,30.34
2022-07-31T10:37:19.632Z,30.34
2022-07-31T10:38:19.624Z,30.40
2022-07-31T10:39:19.616Z,30.46
2022-07-31T10:40:19.599Z,30.49
2022-07-31T10:41:19.588Z,30.53
2022-07-31T10:42:19.583Z,30.47
2022-07-31T10:43:19.565Z,30.56
2022-07-31T10:44:19.555Z,30.53
2022-07-31T10:45:19.545Z,30.52
2022-07-31T10:46:19.533Z,30.57
2022-07-31T10:47:19.520Z,30.54
2022-07-31T10:48:19.526Z,30.54
2022-07-31T10:49:19.532Z,30.65
2022-07-31T10:50:19.490Z,30.68
2022-07-31T10:51:19.479Z,30.69
2022-07-31T10:52:19.466Z,30.65
2022-07-31T10:53:19.461Z,30.67
2022-07-31T10:54:19.473Z,30.68
2022-07-31T10:55:19.434Z,30.67
2022-07-31T10:56:19.425Z,30.62
2022-07-31T10:57:19.411Z,30.65
2022-07-31T10:58:19.400Z,30.75
2022-07-31T10:59:19.388Z,30.86
2022-07-31T11:00:19.399Z,30.81
2022-07-31T11:01:19.477Z,30.94
2022-07-31T11:02:19.356Z,30.91
2022-07-31T11:03:19.348Z,31.08
2022-07-31T11:04:19.334Z,31.05
2022-07-31T11:05:19.322Z,31.13
2022-07-31T11:06:19.334Z,31.12
2022-07-31T11:07:19.301Z,31.26
2022-07-31T11:08:19.290Z,31.20
2022-07-31T11:09:19.279Z,31.26
2022-07-31T11:10:19.268Z,31.17
2022-07-31T11:11:22.472Z,31.12
2022-07-31T11:12:20.250Z,31.12
2022-07-31T11:13:19.237Z,31.15
2022-07-31T11:14:19.222Z,31.12
2022-07-31T11:15:19.211Z,31.35
2022-07-31T11:16:19.202Z,31.45
2022-07-31T11:17:19.190Z,31.49
2022-07-31T11:18:26.383Z,31.48
2022-07-31T11:19:20.168Z,31.38
2022-07-31T11:20:19.157Z,31.58
2022-07-31T11:21:37.518Z,31.72
2022-07-31T11:22:30.862Z,31.99
2022-07-31T11:23:20.123Z,32.13
2022-07-31T11:24:19.132Z,32.35
2022-07-31T11:25:19.104Z,32.51
2022-07-31T11:26:19.092Z,32.66
2022-07-31T11:27:20.078Z,32.73
2022-07-31T11:28:19.190Z,32.70
2022-07-31T11:30:00.202Z,32.81
2022-07-31T11:30:20.067Z,32.99
2022-07-31T11:31:19.035Z,33.11
2022-07-31T11:32:25.978Z,33.22
2022-07-31T11:33:20.013Z,33.36
2022-07-31T11:34:19.003Z,33.37
2022-07-31T11:35:18.991Z,33.51
2022-07-31T11:36:18.988Z,33.60
2022-07-31T11:37:18.971Z,33.58
2022-07-31T11:38:18.959Z,33.67
2022-07-31T11:39:18.952Z,33.83
2022-07-31T11:40:19.935Z,33.42
2022-07-31T11:41:22.097Z,33.13
2022-07-31T11:42:18.921Z,32.86
2022-07-31T11:43:26.624Z,32.67
2022-07-31T11:44:19.893Z,32.71
2022-07-31T11:45:18.882Z,32.55
2022-07-31T11:46:18.870Z,32.32
2022-07-31T11:48:09.676Z,32.24
2022-07-31T11:48:19.855Z,32.20
2022-07-31T11:49:18.852Z,32.15
2022-07-31T11:50:18.825Z,32.10
2022-07-31T11:51:18.819Z,32.39
2022-07-31T11:52:31.193Z,32.76
2022-07-31T11:53:19.797Z,33.04
2022-07-31T11:54:18.810Z,33.19
2022-07-31T11:55:18.772Z,33.33
2022-07-31T11:56:18.759Z,33.37
2022-07-31T11:57:18.749Z,33.57
2022-07-31T11:58:18.743Z,33.46
2022-07-31T11:59:44.688Z,33.10
2022-07-31T12:00:27.053Z,33.39
2022-07-31T12:01:19.703Z,33.58
2022-07-31T12:02:18.764Z,33.95
2022-07-31T12:03:18.684Z,34.17
2022-07-31T12:04:18.671Z,34.44
2022-07-31T12:05:18.661Z,34.69
2022-07-31T12:06:19.685Z,34.74
2022-07-31T12:07:18.638Z,34.81
2022-07-31T12:08:18.638Z,34.99
2022-07-31T12:10:00.805Z,35.01
2022-07-31T12:10:19.604Z,35.01
2022-07-31T12:11:18.602Z,35.13
2022-07-31T12:12:18.588Z,35.13
2022-07-31T12:13:18.572Z,35.18
2022-07-31T12:14:18.564Z,35.14
2022-07-31T12:15:18.550Z,34.94
2022-07-31T12:16:18.545Z,34.51
2022-07-31T12:17:18.531Z,34.76
2022-07-31T12:18:18.522Z,34.89
2022-07-31T12:19:18.508Z,34.45
2022-07-31T12:20:29.970Z,34.04
2022-07-31T12:21:19.483Z,33.90
2022-07-31T12:22:18.474Z,33.58
2022-07-31T12:23:40.678Z,33.46
2022-07-31T12:24:19.466Z,33.41
2022-07-31T12:25:18.440Z,33.23
2022-07-31T12:26:18.430Z,33.23
2022-07-31T12:27:18.420Z,33.45
2022-07-31T12:28:18.408Z,33.92
2022-07-31T12:29:18.398Z,33.87
2022-07-31T12:30:18.415Z,34.26
2022-07-31T12:31:18.374Z,34.56
2022-07-31T12:32:18.362Z,34.79
2022-07-31T12:33:18.351Z,34.42
2022-07-31T12:34:18.342Z,34.05
2022-07-31T12:35:18.330Z,33.71
2022-07-31T12:36:18.330Z,33.53
2022-07-31T12:37:18.307Z,33.41
2022-07-31T12:38:37.687Z,33.34
2022-07-31T12:39:19.284Z,33.14
2022-07-31T12:40:18.278Z,32.98
2022-07-31T12:41:18.266Z,32.89
2022-07-31T12:42:18.260Z,32.88
2022-07-31T12:43:18.245Z,32.73
2022-07-31T12:44:21.584Z,32.73
2022-07-31T12:45:19.982Z,32.64
2022-07-31T12:46:18.212Z,32.57
2022-07-31T12:47:18.198Z,32.40
2022-07-31T12:48:18.193Z,32.66
2022-07-31T12:49:18.254Z,32.70
2022-07-31T12:50:18.165Z,32.47
2022-07-31T12:51:18.154Z,32.40
2022-07-31T12:52:18.143Z,32.35
2022-07-31T12:53:18.132Z,32.27